Time;durP1;ratioP1;P1;durP2;ratioP2;P2;SDS_P1;SDS_P2;PMS_P1;PMS_P2;Temp;Humidity;BMP_temperature;BMP_pressure;BME280_temperature;BME280_humidity;BME280_pressure;Samples;Min_cycle;Max_cycle;Signal;HPM_P1;HPM_P2
2024/03/30 00:00:49;;;;;;;13.63;4.18;;;;;;;;;;5054100;28;20025;-59
2024/03/30 00:03:15;;;;;;;13.52;3.65;;;;;;;;;;5053488;28;20031;-57
2024/03/30 00:05:41;;;;;;;10.93;3.17;;;;;;;;;;5053820;28;20021;-58
2024/03/30 00:08:07;;;;;;;4.22;2.75;;;;;;;;;;5053534;28;20074;-57
2024/03/30 00:10:35;;;;;;;10.75;4.20;;;;;;;;;;5057468;28;20021;-59
2024/03/30 00:13:01;;;;;;;4.50;2.60;;;;;;;;;;5057937;28;20044;-59
2024/03/30 00:15:27;;;;;;;8.75;2.72;;;;;;;;;;5058023;28;20451;-58
2024/03/30 00:17:54;;;;;;;6.85;2.63;;;;;;;;;;5057441;28;20028;-58
2024/03/30 00:20:22;;;;;;;11.68;2.33;;;;;;;;;;5058248;28;20113;-58
2024/03/30 00:22:48;;;;;;;7.43;2.65;;;;;;;;;;5057224;28;20040;-59
2024/03/30 00:25:13;;;;;;;12.82;3.15;;;;;;;;;;5057339;28;20371;-58
2024/03/30 00:27:40;;;;;;;9.30;2.80;;;;;;;;;;5057453;28;20459;-58
2024/03/30 00:30:06;;;;;;;7.63;3.08;;;;;;;;;;5057808;28;20029;-58
2024/03/30 00:32:32;;;;;;;6.30;2.95;;;;;;;;;;5057156;28;20055;-58
2024/03/30 00:34:58;;;;;;;11.05;2.72;;;;;;;;;;5057148;28;20017;-59
2024/03/30 00:37:24;;;;;;;10.93;3.42;;;;;;;;;;5057238;28;20128;-58
2024/03/30 00:39:50;;;;;;;10.55;3.08;;;;;;;;;;5057216;28;20025;-58
2024/03/30 00:42:16;;;;;;;10.32;3.22;;;;;;;;;;5056802;28;20069;-59
2024/03/30 00:44:42;;;;;;;11.07;2.92;;;;;;;;;;5057210;28;20036;-59
2024/03/30 00:47:08;;;;;;;13.95;3.28;;;;;;;;;;5056676;28;20029;-58
2024/03/30 00:49:34;;;;;;;6.82;3.20;;;;;;;;;;5057459;28;20033;-58
2024/03/30 00:52:00;;;;;;;14.25;4.30;;;;;;;;;;5057382;28;20462;-57
2024/03/30 00:54:26;;;;;;;7.30;3.47;;;;;;;;;;5056563;28;20032;-58
2024/03/30 00:56:52;;;;;;;13.65;3.78;;;;;;;;;;5056670;28;20371;-58
2024/03/30 00:59:18;;;;;;;15.90;3.70;;;;;;;;;;5056737;28;20447;-58
2024/03/30 01:01:44;;;;;;;12.35;2.63;;;;;;;;;;5056648;28;20025;-58
2024/03/30 01:04:09;;;;;;;9.93;2.92;;;;;;;;;;5057457;28;20024;-58
2024/03/30 01:06:35;;;;;;;14.10;4.25;;;;;;;;;;5057173;28;20457;-57
2024/03/30 01:09:01;;;;;;;10.77;4.32;;;;;;;;;;5056910;28;20025;-58
2024/03/30 01:11:27;;;;;;;12.63;4.00;;;;;;;;;;5056465;28;20120;-58
2024/03/30 01:13:53;;;;;;;20.30;4.47;;;;;;;;;;5056958;28;20036;-58
2024/03/30 01:16:20;;;;;;;13.85;4.95;;;;;;;;;;5056983;28;20029;-58
2024/03/30 01:18:46;;;;;;;10.77;4.25;;;;;;;;;;5056114;28;20021;-58
2024/03/30 01:21:12;;;;;;;18.75;4.53;;;;;;;;;;5056055;28;20040;-58
2024/03/30 01:23:38;;;;;;;15.75;4.30;;;;;;;;;;5056575;28;20058;-58
2024/03/30 01:26:06;;;;;;;16.98;4.68;;;;;;;;;;5056476;28;20033;-58
2024/03/30 01:28:33;;;;;;;11.93;4.80;;;;;;;;;;5056793;28;20155;-58
2024/03/30 01:30:59;;;;;;;24.70;5.47;;;;;;;;;;5056153;28;20029;-58
2024/03/30 01:33:25;;;;;;;19.83;5.60;;;;;;;;;;5056099;28;20036;-58
2024/03/30 01:35:51;;;;;;;24.40;5.82;;;;;;;;;;5056880;28;20056;-58
2024/03/30 01:38:18;;;;;;;21.38;6.35;;;;;;;;;;5056035;28;20079;-58
2024/03/30 01:40:44;;;;;;;23.63;5.38;;;;;;;;;;5055902;28;20033;-58
2024/03/30 01:43:10;;;;;;;19.73;5.75;;;;;;;;;;5055983;28;20090;-58
2024/03/30 01:45:39;;;;;;;20.55;5.18;;;;;;;;;;5056139;28;20067;-58
2024/03/30 01:48:07;;;;;;;26.52;6.05;;;;;;;;;;5056607;28;20465;-58
2024/03/30 01:50:33;;;;;;;15.77;4.32;;;;;;;;;;5056693;28;20083;-58
2024/03/30 01:53:01;;;;;;;18.83;6.22;;;;;;;;;;5056189;28;20037;-58
2024/03/30 01:55:27;;;;;;;16.73;5.55;;;;;;;;;;5055560;28;20459;-58
2024/03/30 01:57:53;;;;;;;19.42;5.22;;;;;;;;;;5055743;28;20052;-58
2024/03/30 02:00:19;;;;;;;19.42;6.22;;;;;;;;;;5055642;28;20060;-58
2024/03/30 02:02:46;;;;;;;29.73;5.50;;;;;;;;;;5056091;28;20032;-58
2024/03/30 02:05:12;;;;;;;12.88;4.88;;;;;;;;;;5055287;28;20056;-58
2024/03/30 02:07:38;;;;;;;21.48;4.57;;;;;;;;;;5055992;28;20397;-58
2024/03/30 02:10:04;;;;;;;19.23;6.10;;;;;;;;;;5056032;28;20025;-58
2024/03/30 02:12:31;;;;;;;17.42;5.63;;;;;;;;;;5055279;28;20179;-58
2024/03/30 02:14:57;;;;;;;23.42;5.63;;;;;;;;;;5055320;28;20036;-58
2024/03/30 02:17:23;;;;;;;19.90;5.18;;;;;;;;;;5055628;28;20112;-58
2024/03/30 02:19:49;;;;;;;14.52;4.18;;;;;;;;;;5055938;28;20114;-58
2024/03/30 02:22:18;;;;;;;23.45;5.40;;;;;;;;;;5055770;28;20029;-58
2024/03/30 02:24:44;;;;;;;23.30;5.28;;;;;;;;;;5055105;28;20112;-58
2024/03/30 02:27:10;;;;;;;25.75;5.30;;;;;;;;;;5055133;28;20047;-58
2024/03/30 02:29:38;;;;;;;13.75;5.07;;;;;;;;;;5055639;28;20025;-58
2024/03/30 02:32:04;;;;;;;24.05;4.45;;;;;;;;;;5054759;28;20041;-58
2024/03/30 02:34:30;;;;;;;19.77;5.38;;;;;;;;;;5054987;28;20017;-58
2024/03/30 02:36:56;;;;;;;22.48;4.70;;;;;;;;;;5054949;28;20383;-58
2024/03/30 02:39:22;;;;;;;14.57;4.47;;;;;;;;;;5054792;28;20032;-58
2024/03/30 02:41:48;;;;;;;15.02;4.00;;;;;;;;;;5055334;28;20090;-58
2024/03/30 02:44:14;;;;;;;26.05;6.03;;;;;;;;;;5054776;28;20025;-58
2024/03/30 02:46:40;;;;;;;18.48;5.40;;;;;;;;;;5055035;28;20455;-58
2024/03/30 02:49:06;;;;;;;16.20;4.82;;;;;;;;;;5054626;28;20025;-58
2024/03/30 02:51:32;;;;;;;15.88;4.15;;;;;;;;;;5054787;28;20122;-58
2024/03/30 02:53:57;;;;;;;16.63;4.25;;;;;;;;;;5054521;28;20017;-58
2024/03/30 02:56:24;;;;;;;19.48;3.58;;;;;;;;;;5054500;28;20049;-58
2024/03/30 02:58:49;;;;;;;16.02;4.85;;;;;;;;;;5054777;28;20443;-58
2024/03/30 03:01:15;;;;;;;18.88;3.97;;;;;;;;;;5054429;28;20035;-58
2024/03/30 03:03:41;;;;;;;18.67;5.38;;;;;;;;;;5054310;28;20067;-58
2024/03/30 03:06:07;;;;;;;19.05;5.43;;;;;;;;;;5054345;28;20017;-58
2024/03/30 03:08:33;;;;;;;15.23;4.25;;;;;;;;;;5054697;28;20051;-58
2024/03/30 03:10:59;;;;;;;17.95;4.72;;;;;;;;;;5054289;28;20024;-58
2024/03/30 03:13:25;;;;;;;13.98;4.43;;;;;;;;;;5054401;28;20033;-58
2024/03/30 03:15:51;;;;;;;16.90;4.70;;;;;;;;;;5054190;28;20421;-58
2024/03/30 03:18:17;;;;;;;17.40;4.70;;;;;;;;;;5054715;28;20025;-58
2024/03/30 03:20:43;;;;;;;14.40;4.15;;;;;;;;;;5054669;28;20082;-59
2024/03/30 03:23:09;;;;;;;13.77;3.70;;;;;;;;;;5054038;28;20118;-59
2024/03/30 03:25:35;;;;;;;10.07;4.25;;;;;;;;;;5054070;28;20532;-58
2024/03/30 03:28:01;;;;;;;16.02;4.47;;;;;;;;;;5054569;28;20075;-59
2024/03/30 03:30:27;;;;;;;26.33;4.45;;;;;;;;;;5053730;28;20025;-59
2024/03/30 03:32:52;;;;;;;12.05;3.53;;;;;;;;;;5053858;28;20036;-59
2024/03/30 03:35:18;;;;;;;16.08;3.55;;;;;;;;;;5054480;28;20108;-59
2024/03/30 03:37:44;;;;;;;17.27;4.38;;;;;;;;;;5053606;28;20032;-59
2024/03/30 03:40:10;;;;;;;17.85;4.45;;;;;;;;;;5053795;28;20029;-58
2024/03/30 03:42:36;;;;;;;15.25;4.45;;;;;;;;;;5054142;28;20375;-59
2024/03/30 03:45:02;;;;;;;13.70;4.32;;;;;;;;;;5054011;28;20021;-58
2024/03/30 03:47:28;;;;;;;14.13;3.22;;;;;;;;;;5053706;28;20021;-59
2024/03/30 03:49:54;;;;;;;13.73;3.75;;;;;;;;;;5054269;28;20108;-58
2024/03/30 03:52:20;;;;;;;18.25;2.97;;;;;;;;;;5053724;28;20060;-58
2024/03/30 03:54:46;;;;;;;17.55;3.25;;;;;;;;;;5054524;28;20075;-58
2024/03/30 03:57:12;;;;;;;15.45;2.58;;;;;;;;;;5054390;28;20474;-58
2024/03/30 03:59:38;;;;;;;8.90;3.17;;;;;;;;;;5053644;28;20455;-58
2024/03/30 04:02:04;;;;;;;18.50;3.22;;;;;;;;;;5053570;28;20382;-58
2024/03/30 04:04:30;;;;;;;7.13;2.92;;;;;;;;;;5053270;28;20106;-58
2024/03/30 04:06:58;;;;;;;14.55;3.22;;;;;;;;;;5053340;28;20025;-58
2024/03/30 04:09:23;;;;;;;5.95;2.95;;;;;;;;;;5054124;28;20021;-58
2024/03/30 04:11:49;;;;;;;15.35;2.88;;;;;;;;;;5053438;28;20039;-58
2024/03/30 04:14:15;;;;;;;16.98;3.63;;;;;;;;;;5054264;28;20530;-58
2024/03/30 04:16:41;;;;;;;16.70;3.88;;;;;;;;;;5053199;28;20060;-58
2024/03/30 04:19:07;;;;;;;10.95;4.22;;;;;;;;;;5053983;28;20083;-58
2024/03/30 04:21:33;;;;;;;11.18;2.90;;;;;;;;;;5054129;28;20080;-58
2024/03/30 04:23:59;;;;;;;12.75;2.58;;;;;;;;;;5053852;28;20367;-58
2024/03/30 04:26:26;;;;;;;9.63;3.50;;;;;;;;;;5053886;28;20078;-58
2024/03/30 04:28:52;;;;;;;14.85;3.40;;;;;;;;;;5053584;28;20040;-58
2024/03/30 04:31:18;;;;;;;12.40;1.98;;;;;;;;;;5053198;28;20025;-58
2024/03/30 04:33:43;;;;;;;11.35;2.45;;;;;;;;;;5054024;28;20442;-58
2024/03/30 04:36:10;;;;;;;13.05;3.38;;;;;;;;;;5053245;28;20561;-58
2024/03/30 04:38:36;;;;;;;18.35;2.97;;;;;;;;;;5053238;28;20052;-57
2024/03/30 04:41:05;;;;;;;8.27;2.55;;;;;;;;;;5053836;28;20029;-58
2024/03/30 04:43:32;;;;;;;11.18;2.95;;;;;;;;;;5052709;28;20033;-58
2024/03/30 04:45:58;;;;;;;11.82;3.20;;;;;;;;;;5053551;28;20044;-58
2024/03/30 04:48:26;;;;;;;13.20;2.75;;;;;;;;;;5053848;28;20028;-58
2024/03/30 04:50:52;;;;;;;13.57;2.05;;;;;;;;;;5053695;28;20032;-58
2024/03/30 04:53:19;;;;;;;9.50;2.58;;;;;;;;;;5053114;28;20444;-56
2024/03/30 04:55:51;;;;;;;7.70;2.42;;;;;;;;;;5055427;28;20021;-58
2024/03/30 04:58:18;;;;;;;8.30;2.75;;;;;;;;;;5057209;28;20045;-58
2024/03/30 05:00:44;;;;;;;8.77;2.88;;;;;;;;;;5056803;28;20033;-58
2024/03/30 05:03:09;;;;;;;13.73;2.88;;;;;;;;;;5057485;28;20083;-57
2024/03/30 05:05:35;;;;;;;18.17;3.05;;;;;;;;;;5056643;28;20029;-58
2024/03/30 05:08:01;;;;;;;6.30;2.42;;;;;;;;;;5056419;28;20425;-57
2024/03/30 05:10:27;;;;;;;17.67;2.58;;;;;;;;;;5056574;28;20120;-58
2024/03/30 05:12:53;;;;;;;13.05;2.92;;;;;;;;;;5056953;28;20079;-58
2024/03/30 05:15:19;;;;;;;11.70;1.88;;;;;;;;;;5056491;28;20051;-58
2024/03/30 05:17:45;;;;;;;5.55;2.42;;;;;;;;;;5056457;28;20048;-58
2024/03/30 05:22:55;;;;;;;11.75;2.42;;;;;;;;;;5056683;28;20106;-58
2024/03/30 05:25:21;;;;;;;11.45;2.85;;;;;;;;;;5056342;28;20036;-58
2024/03/30 05:27:47;;;;;;;11.27;2.63;;;;;;;;;;5057039;28;20427;-58
2024/03/30 05:30:14;;;;;;;6.43;1.77;;;;;;;;;;5056609;28;20104;-58
2024/03/30 05:32:40;;;;;;;9.98;2.33;;;;;;;;;;5056611;28;20037;-58
2024/03/30 05:35:06;;;;;;;11.38;2.13;;;;;;;;;;5055862;28;20025;-58
2024/03/30 05:37:32;;;;;;;9.73;2.22;;;;;;;;;;5056114;28;20087;-58
2024/03/30 05:39:58;;;;;;;5.80;2.13;;;;;;;;;;5055659;28;20029;-58
2024/03/30 05:42:23;;;;;;;6.57;1.95;;;;;;;;;;5055949;28;20115;-58
2024/03/30 05:44:50;;;;;;;21.40;2.53;;;;;;;;;;5055964;28;20103;-58
2024/03/30 05:47:16;;;;;;;12.23;2.28;;;;;;;;;;5056699;28;20068;-59
2024/03/30 05:49:42;;;;;;;6.20;2.03;;;;;;;;;;5056467;28;20025;-58
2024/03/30 05:52:08;;;;;;;7.75;2.20;;;;;;;;;;5056237;28;20040;-58
2024/03/30 05:54:34;;;;;;;4.80;2.65;;;;;;;;;;5055788;28;20348;-58
2024/03/30 05:57:00;;;;;;;11.45;2.70;;;;;;;;;;5056221;28;20045;-58
2024/03/30 05:59:26;;;;;;;9.02;2.50;;;;;;;;;;5055695;28;20025;-58
2024/03/30 06:01:52;;;;;;;8.60;2.25;;;;;;;;;;5055611;28;20032;-58
2024/03/30 06:04:18;;;;;;;10.18;2.47;;;;;;;;;;5055624;28;20029;-58
2024/03/30 06:06:44;;;;;;;9.18;3.22;;;;;;;;;;5055760;28;20407;-58
2024/03/30 06:09:10;;;;;;;5.05;1.38;;;;;;;;;;5056065;28;20086;-58
2024/03/30 06:11:35;;;;;;;7.97;2.33;;;;;;;;;;5055606;28;20378;-58
2024/03/30 06:14:01;;;;;;;7.72;1.88;;;;;;;;;;5055372;28;20017;-59
2024/03/30 06:16:27;;;;;;;10.38;2.35;;;;;;;;;;5055090;28;20028;-58
2024/03/30 06:18:53;;;;;;;9.32;2.15;;;;;;;;;;5055876;28;20027;-59
2024/03/30 06:21:19;;;;;;;10.80;2.83;;;;;;;;;;5055268;28;20032;-59
2024/03/30 06:23:45;;;;;;;9.43;2.30;;;;;;;;;;5055187;28;20086;-58
2024/03/30 06:26:11;;;;;;;12.25;2.60;;;;;;;;;;5055711;28;20017;-58
2024/03/30 06:28:37;;;;;;;6.80;2.72;;;;;;;;;;5055681;28;20021;-59
2024/03/30 06:31:03;;;;;;;11.18;3.00;;;;;;;;;;5055591;28;20063;-59
2024/03/30 06:33:29;;;;;;;8.50;2.05;;;;;;;;;;5054664;28;20033;-59
2024/03/30 06:35:55;;;;;;;7.47;2.92;;;;;;;;;;5055065;28;20025;-59
2024/03/30 06:38:21;;;;;;;11.45;2.72;;;;;;;;;;5055183;28;20024;-59
2024/03/30 06:43:41;;;;;;;8.52;2.75;;;;;;;;;;5055167;28;20078;-58
2024/03/30 06:46:08;;;;;;;10.55;2.70;;;;;;;;;;5054747;28;20447;-57
2024/03/30 06:48:34;;;;;;;8.57;2.63;;;;;;;;;;5055225;28;20025;-61
2024/03/30 06:51:00;;;;;;;7.15;3.13;;;;;;;;;;5054577;28;20029;-58
2024/03/30 06:53:26;;;;;;;12.23;2.42;;;;;;;;;;5054869;28;20451;-59
2024/03/30 06:55:52;;;;;;;14.05;2.65;;;;;;;;;;5054566;28;20029;-58
2024/03/30 06:58:18;;;;;;;13.57;1.98;;;;;;;;;;5054867;28;20140;-58
2024/03/30 07:00:44;;;;;;;12.68;4.03;;;;;;;;;;5054454;28;20459;-58
2024/03/30 07:03:09;;;;;;;9.27;3.08;;;;;;;;;;5054400;28;20036;-59
2024/03/30 07:05:36;;;;;;;8.30;2.35;;;;;;;;;;5054061;28;20041;-58
2024/03/30 07:08:02;;;;;;;6.95;2.72;;;;;;;;;;5054788;28;20032;-58
2024/03/30 07:10:28;;;;;;;14.88;2.63;;;;;;;;;;5054639;28;20017;-58
2024/03/30 07:12:54;;;;;;;9.27;2.95;;;;;;;;;;5054162;28;20031;-58
2024/03/30 07:15:23;;;;;;;15.48;2.17;;;;;;;;;;5054742;28;20431;-59
2024/03/30 07:17:49;;;;;;;7.72;2.80;;;;;;;;;;5053326;28;20024;-58
2024/03/30 07:20:16;;;;;;;11.68;2.92;;;;;;;;;;5054198;28;20108;-59
2024/03/30 07:22:42;;;;;;;10.90;2.75;;;;;;;;;;5053853;28;20425;-58
2024/03/30 07:25:08;;;;;;;10.60;2.88;;;;;;;;;;5054093;28;20108;-59
2024/03/30 07:27:35;;;;;;;17.33;2.92;;;;;;;;;;5054233;28;20094;-59
2024/03/30 07:30:02;;;;;;;13.88;2.65;;;;;;;;;;5054539;28;20025;-58
2024/03/30 07:32:27;;;;;;;8.93;3.10;;;;;;;;;;5053732;28;20029;-58
2024/03/30 07:34:53;;;;;;;13.50;3.13;;;;;;;;;;5054388;28;20486;-58
2024/03/30 07:37:19;;;;;;;19.90;3.45;;;;;;;;;;5053915;28;20351;-59
2024/03/30 07:39:45;;;;;;;11.32;2.60;;;;;;;;;;5053945;28;20029;-58
2024/03/30 07:42:11;;;;;;;11.13;2.58;;;;;;;;;;5053680;28;20017;-58
2024/03/30 07:44:38;;;;;;;14.00;2.65;;;;;;;;;;5053583;28;20035;-59
2024/03/30 07:47:05;;;;;;;15.48;3.50;;;;;;;;;;5053929;28;20057;-58
2024/03/30 07:49:31;;;;;;;10.75;3.70;;;;;;;;;;5054299;28;20025;-58
2024/03/30 07:51:57;;;;;;;8.80;3.03;;;;;;;;;;5053603;28;20528;-59
2024/03/30 07:54:23;;;;;;;8.10;2.40;;;;;;;;;;5054101;28;20037;-58
2024/03/30 07:56:59;;;;;;;8.02;3.20;;;;;;;;;;5053319;28;20053;-59
2024/03/30 07:59:25;;;;;;;15.93;3.97;;;;;;;;;;5053281;28;20516;-59
2024/03/30 08:01:51;;;;;;;14.10;2.90;;;;;;;;;;5053640;28;20021;-58
2024/03/30 08:04:17;;;;;;;17.95;2.97;;;;;;;;;;5053661;28;20105;-58
2024/03/30 08:06:43;;;;;;;7.95;2.20;;;;;;;;;;5054354;28;20017;-59
2024/03/30 08:09:09;;;;;;;9.75;2.78;;;;;;;;;;5053973;28;20021;-58
2024/03/30 08:11:35;;;;;;;15.52;3.17;;;;;;;;;;5053230;28;20086;-58
2024/03/30 08:14:03;;;;;;;18.80;3.55;;;;;;;;;;5054291;28;20490;-58
2024/03/30 08:16:28;;;;;;;13.07;3.13;;;;;;;;;;5053920;28;20027;-58
2024/03/30 08:18:55;;;;;;;10.65;3.10;;;;;;;;;;5054255;28;20526;-58
2024/03/30 08:21:23;;;;;;;23.67;4.20;;;;;;;;;;5053648;28;20039;-59
2024/03/30 08:23:49;;;;;;;5.75;1.98;;;;;;;;;;5053904;28;20032;-58
2024/03/30 08:26:15;;;;;;;9.98;3.05;;;;;;;;;;5054100;28;20021;-58
2024/03/30 08:28:41;;;;;;;17.13;4.63;;;;;;;;;;5053971;28;20412;-59
2024/03/30 08:31:07;;;;;;;10.68;3.25;;;;;;;;;;5055831;28;20348;-58
2024/03/30 08:33:33;;;;;;;15.02;4.47;;;;;;;;;;5057766;28;20028;-59
2024/03/30 08:35:59;;;;;;;15.98;3.55;;;;;;;;;;5057175;28;20024;-58
2024/03/30 08:38:25;;;;;;;11.68;3.58;;;;;;;;;;5057886;28;20464;-58
2024/03/30 08:40:51;;;;;;;9.40;3.13;;;;;;;;;;5057839;28;20028;-58
2024/03/30 08:43:16;;;;;;;7.45;3.38;;;;;;;;;;5056946;28;20029;-58
2024/03/30 08:45:43;;;;;;;12.70;3.72;;;;;;;;;;5056782;28;20017;-59
2024/03/30 08:48:15;;;;;;;20.40;3.63;;;;;;;;;;5056561;28;20482;-58
2024/03/30 08:50:41;;;;;;;12.38;4.72;;;;;;;;;;5056781;28;20021;-59
2024/03/30 08:53:10;;;;;;;15.65;4.05;;;;;;;;;;5056817;28;20031;-59
2024/03/30 08:55:36;;;;;;;23.10;4.10;;;;;;;;;;5056815;28;20110;-58
2024/03/30 08:58:03;;;;;;;12.75;3.60;;;;;;;;;;5057290;28;20049;-57
2024/03/30 09:00:29;;;;;;;16.38;3.60;;;;;;;;;;5056954;28;20025;-58
2024/03/30 09:02:55;;;;;;;13.10;4.10;;;;;;;;;;5056582;28;20029;-57
2024/03/30 09:05:26;;;;;;;18.05;4.53;;;;;;;;;;5056655;28;20455;-58
2024/03/30 09:07:52;;;;;;;11.60;4.63;;;;;;;;;;5056955;28;20056;-58
2024/03/30 09:10:18;;;;;;;16.67;3.55;;;;;;;;;;5056789;28;20025;-58
2024/03/30 09:12:44;;;;;;;11.57;3.75;;;;;;;;;;5056482;28;20410;-58
2024/03/30 09:15:10;;;;;;;19.45;4.40;;;;;;;;;;5056387;28;20079;-57
2024/03/30 09:17:36;;;;;;;8.38;4.07;;;;;;;;;;5056421;28;20076;-58
2024/03/30 09:20:02;;;;;;;11.38;3.60;;;;;;;;;;5057094;28;20025;-59
2024/03/30 09:22:28;;;;;;;12.85;4.25;;;;;;;;;;5055896;28;20024;-59
2024/03/30 09:24:55;;;;;;;15.45;3.97;;;;;;;;;;5056170;28;20542;-59
2024/03/30 09:27:23;;;;;;;11.20;3.88;;;;;;;;;;5056802;28;20071;-59
2024/03/30 09:29:49;;;;;;;12.75;4.20;;;;;;;;;;5056543;28;20131;-58
2024/03/30 09:32:15;;;;;;;10.13;3.63;;;;;;;;;;5056067;28;20064;-57
2024/03/30 09:34:40;;;;;;;12.50;2.95;;;;;;;;;;5056179;28;20477;-58
2024/03/30 09:37:08;;;;;;;13.52;3.38;;;;;;;;;;5055995;28;20048;-58
2024/03/30 09:39:40;;;;;;;14.98;3.97;;;;;;;;;;5055736;28;20096;-59
2024/03/30 09:42:11;;;;;;;10.13;3.35;;;;;;;;;;5055583;28;20036;-59
2024/03/30 09:44:38;;;;;;;12.40;3.67;;;;;;;;;;5056027;28;20032;-59
2024/03/30 09:47:04;;;;;;;20.95;3.97;;;;;;;;;;5056337;28;20025;-58
2024/03/30 09:49:32;;;;;;;12.52;4.45;;;;;;;;;;5056079;28;20021;-58
2024/03/30 09:52:02;;;;;;;8.63;2.75;;;;;;;;;;5055623;28;20534;-59
2024/03/30 09:54:30;;;;;;;11.45;3.78;;;;;;;;;;5055671;28;20056;-58
2024/03/30 09:56:56;;;;;;;14.27;4.10;;;;;;;;;;5056184;28;20087;-59
2024/03/30 09:59:22;;;;;;;7.47;3.17;;;;;;;;;;5055643;28;20025;-58
2024/03/30 10:01:48;;;;;;;13.95;4.35;;;;;;;;;;5055774;28;20032;-58
2024/03/30 10:04:14;;;;;;;19.25;4.82;;;;;;;;;;5055405;28;20021;-58
2024/03/30 10:06:44;;;;;;;20.05;4.60;;;;;;;;;;5055414;28;20021;-58
2024/03/30 10:09:13;;;;;;;13.18;3.20;;;;;;;;;;5056071;28;20025;-58
2024/03/30 10:11:40;;;;;;;15.18;3.95;;;;;;;;;;5054793;28;20482;-57
2024/03/30 10:14:24;;;;;;;22.17;3.78;;;;;;;;;;5055235;28;20044;-58
2024/03/30 10:16:50;;;;;;;16.40;4.18;;;;;;;;;;5055394;28;20029;-57
2024/03/30 10:19:18;;;;;;;16.67;4.07;;;;;;;;;;5055442;28;20489;-58
2024/03/30 10:21:45;;;;;;;12.38;4.20;;;;;;;;;;5054912;28;20036;-58
2024/03/30 10:24:12;;;;;;;10.15;3.63;;;;;;;;;;5055294;28;20079;-58
2024/03/30 10:26:40;;;;;;;12.55;4.05;;;;;;;;;;5055207;28;20025;-58
2024/03/30 10:29:06;;;;;;;7.03;2.72;;;;;;;;;;5055582;28;20061;-58
2024/03/30 10:31:32;;;;;;;9.98;3.63;;;;;;;;;;5055419;28;20029;-58
2024/03/30 10:34:01;;;;;;;12.48;3.25;;;;;;;;;;5054940;28;20056;-57
2024/03/30 10:36:27;;;;;;;10.05;2.15;;;;;;;;;;5054864;28;20367;-58
2024/03/30 10:38:53;;;;;;;11.15;3.78;;;;;;;;;;5055310;28;20483;-58
2024/03/30 10:41:19;;;;;;;11.93;3.17;;;;;;;;;;5054490;28;20040;-58
2024/03/30 10:43:45;;;;;;;13.48;3.70;;;;;;;;;;5054352;28;20109;-58
2024/03/30 10:46:12;;;;;;;17.30;4.25;;;;;;;;;;5054955;28;20045;-58
2024/03/30 10:48:39;;;;;;;13.02;3.83;;;;;;;;;;5054287;28;20471;-59
2024/03/30 10:51:05;;;;;;;15.95;4.22;;;;;;;;;;5054590;28;20029;-58
2024/03/30 10:53:31;;;;;;;16.50;3.30;;;;;;;;;;5054332;28;20036;-58
2024/03/30 10:55:57;;;;;;;19.83;4.28;;;;;;;;;;5054656;28;20454;-59
2024/03/30 10:58:24;;;;;;;20.08;3.90;;;;;;;;;;5054487;28;20021;-58
2024/03/30 11:00:50;;;;;;;24.67;4.53;;;;;;;;;;5054905;28;20032;-57
2024/03/30 11:03:17;;;;;;;17.48;4.18;;;;;;;;;;5054145;28;20025;-57
2024/03/30 11:05:43;;;;;;;15.95;3.88;;;;;;;;;;5055076;28;20017;-57
2024/03/30 11:08:11;;;;;;;12.73;4.13;;;;;;;;;;5054337;28;20100;-58
2024/03/30 11:10:37;;;;;;;11.18;2.83;;;;;;;;;;5054513;28;20459;-57
2024/03/30 11:13:04;;;;;;;19.67;4.40;;;;;;;;;;5054056;28;20036;-57
2024/03/30 11:15:34;;;;;;;15.93;3.75;;;;;;;;;;5054195;28;20029;-57
2024/03/30 11:18:03;;;;;;;15.40;4.43;;;;;;;;;;5054743;28;20071;-57
2024/03/30 11:20:41;;;;;;;12.23;3.17;;;;;;;;;;5054495;28;20027;-56
2024/03/30 11:23:20;;;;;;;19.85;3.63;;;;;;;;;;5054198;28;20029;-57
2024/03/30 11:25:49;;;;;;;14.27;3.77;;;;;;;;;;5054032;28;20532;-57
2024/03/30 11:28:24;;;;;;;13.18;3.53;;;;;;;;;;5054392;28;20095;-58
2024/03/30 11:30:54;;;;;;;13.18;3.60;;;;;;;;;;5054212;28;20501;-57
2024/03/30 11:33:30;;;;;;;13.05;4.00;;;;;;;;;;5054089;28;20068;-54
2024/03/30 11:36:11;;;;;;;17.00;4.38;;;;;;;;;;5053788;28;20029;-59
2024/03/30 11:38:37;;;;;;;12.43;3.28;;;;;;;;;;5053643;28;20374;-59
2024/03/30 11:41:04;;;;;;;15.38;3.83;;;;;;;;;;5054014;28;20055;-59
2024/03/30 11:43:44;;;;;;;14.25;3.45;;;;;;;;;;5054269;28;20029;-58
2024/03/30 11:46:10;;;;;;;12.73;4.18;;;;;;;;;;5053766;28;20021;-59
2024/03/30 11:48:36;;;;;;;13.15;3.83;;;;;;;;;;5054357;28;20021;-59
2024/03/30 11:51:02;;;;;;;12.07;3.55;;;;;;;;;;5053406;28;20025;-59
2024/03/30 11:53:34;;;;;;;11.35;3.78;;;;;;;;;;5054252;28;20033;-56
2024/03/30 11:56:00;;;;;;;11.65;4.68;;;;;;;;;;5054042;28;20367;-59
2024/03/30 11:58:26;;;;;;;11.55;4.53;;;;;;;;;;5053795;28;20029;-56
2024/03/30 12:00:53;;;;;;;14.85;4.10;;;;;;;;;;5053428;28;20047;-59
2024/03/30 12:03:19;;;;;;;15.63;3.53;;;;;;;;;;5053385;28;20017;-59
2024/03/30 12:05:48;;;;;;;7.07;3.58;;;;;;;;;;5059649;28;20021;-57
2024/03/30 12:08:15;;;;;;;12.75;3.65;;;;;;;;;;5060712;28;20024;-59
2024/03/30 12:10:48;;;;;;;12.25;3.75;;;;;;;;;;5060538;28;20029;-58
2024/03/30 12:13:14;;;;;;;9.90;2.97;;;;;;;;;;5059892;28;20037;-58
2024/03/30 12:15:40;;;;;;;11.05;4.25;;;;;;;;;;5060516;28;20501;-58
2024/03/30 12:18:06;;;;;;;8.32;3.17;;;;;;;;;;5059802;28;20021;-58
2024/03/30 12:20:33;;;;;;;8.07;3.17;;;;;;;;;;5060284;28;20033;-58
2024/03/30 12:22:59;;;;;;;14.18;3.55;;;;;;;;;;5060058;28;20419;-56
2024/03/30 12:25:26;;;;;;;10.20;3.45;;;;;;;;;;5060383;28;20025;-60
2024/03/30 12:27:52;;;;;;;9.02;3.15;;;;;;;;;;5060554;28;20025;-59
2024/03/30 12:30:18;;;;;;;13.10;3.67;;;;;;;;;;5060369;28;20071;-58
2024/03/30 12:32:45;;;;;;;14.32;3.55;;;;;;;;;;5059771;28;20021;-59
2024/03/30 12:35:11;;;;;;;13.35;3.28;;;;;;;;;;5059855;28;20029;-60
2024/03/30 12:37:37;;;;;;;10.60;3.53;;;;;;;;;;5059581;28;20071;-60
2024/03/30 12:40:03;;;;;;;14.63;2.97;;;;;;;;;;5059907;28;20112;-60
2024/03/30 12:42:29;;;;;;;9.15;2.78;;;;;;;;;;5059702;28;20028;-60
2024/03/30 12:44:58;;;;;;;15.05;4.28;;;;;;;;;;5060232;28;20017;-60
2024/03/30 12:47:24;;;;;;;10.50;3.15;;;;;;;;;;5059819;28;20025;-59
2024/03/30 12:49:50;;;;;;;14.93;3.83;;;;;;;;;;5060407;28;20159;-58
2024/03/30 12:52:16;;;;;;;9.18;3.50;;;;;;;;;;5060073;28;20056;-59
2024/03/30 12:54:42;;;;;;;15.13;3.42;;;;;;;;;;5059743;28;20052;-59
2024/03/30 12:57:08;;;;;;;12.73;4.63;;;;;;;;;;5059706;28;20486;-59
2024/03/30 12:59:35;;;;;;;12.90;3.90;;;;;;;;;;5059668;28;20029;-59
2024/03/30 13:02:04;;;;;;;14.05;4.05;;;;;;;;;;5060194;28;20025;-60
2024/03/30 13:04:33;;;;;;;15.25;5.18;;;;;;;;;;5059547;28;20021;-59
2024/03/30 13:06:59;;;;;;;10.32;4.03;;;;;;;;;;5059755;28;20025;-59
2024/03/30 13:09:27;;;;;;;8.23;3.03;;;;;;;;;;5060058;28;20021;-58
2024/03/30 13:11:53;;;;;;;13.65;3.65;;;;;;;;;;5060314;28;20409;-59
2024/03/30 13:14:19;;;;;;;8.45;3.88;;;;;;;;;;5060131;28;20025;-59
2024/03/30 13:16:45;;;;;;;6.82;3.17;;;;;;;;;;5056317;28;20031;-58
2024/03/30 13:19:11;;;;;;;7.25;3.42;;;;;;;;;;5056922;28;20028;-59
2024/03/30 13:21:42;;;;;;;10.32;2.78;;;;;;;;;;5056481;28;20371;-59
2024/03/30 13:24:08;;;;;;;13.13;3.88;;;;;;;;;;5056160;28;20025;-59
2024/03/30 13:26:34;;;;;;;8.43;2.58;;;;;;;;;;5056594;28;20482;-58
2024/03/30 13:29:00;;;;;;;10.18;2.50;;;;;;;;;;5056618;28;20020;-57
2024/03/30 13:31:26;;;;;;;17.88;2.88;;;;;;;;;;5055720;28;20033;-58
2024/03/30 13:33:52;;;;;;;8.38;2.08;;;;;;;;;;5056241;28;20025;-58
2024/03/30 13:36:18;;;;;;;16.60;3.78;;;;;;;;;;5055908;28;20024;-59
2024/03/30 13:38:44;;;;;;;8.25;1.98;;;;;;;;;;5056273;28;20124;-57
2024/03/30 13:41:10;;;;;;;14.10;3.17;;;;;;;;;;5055968;28;20075;-57
2024/03/30 13:43:36;;;;;;;14.52;2.70;;;;;;;;;;5056445;28;20028;-57
2024/03/30 13:46:02;;;;;;;9.50;2.72;;;;;;;;;;5056041;28;20029;-57
2024/03/30 13:48:29;;;;;;;9.13;2.88;;;;;;;;;;5056553;28;20115;-57
2024/03/30 13:50:55;;;;;;;9.18;2.97;;;;;;;;;;5056359;28;20028;-57
2024/03/30 13:53:21;;;;;;;8.25;2.67;;;;;;;;;;5055695;28;20025;-56
2024/03/30 13:55:46;;;;;;;11.48;2.40;;;;;;;;;;5055980;28;20052;-57
2024/03/30 13:58:15;;;;;;;12.10;3.00;;;;;;;;;;5055788;28;20052;-57
2024/03/30 14:00:43;;;;;;;9.30;2.80;;;;;;;;;;5055947;28;20071;-57
2024/03/30 14:03:09;;;;;;;14.00;2.88;;;;;;;;;;5055460;28;20059;-57
2024/03/30 14:05:35;;;;;;;19.23;3.08;;;;;;;;;;5055401;28;20017;-57
2024/03/30 14:08:01;;;;;;;13.70;2.60;;;;;;;;;;5055682;28;20021;-57
2024/03/30 14:10:27;;;;;;;11.02;2.95;;;;;;;;;;5055934;28;20028;-57
2024/03/30 14:12:53;;;;;;;19.38;3.63;;;;;;;;;;5055243;28;20164;-56
2024/03/30 14:15:19;;;;;;;6.13;2.53;;;;;;;;;;5055344;28;20438;-57
2024/03/30 14:17:45;;;;;;;10.77;2.00;;;;;;;;;;5055790;28;20107;-57
2024/03/30 14:20:12;;;;;;;22.52;3.97;;;;;;;;;;5055809;28;20370;-57
2024/03/30 14:22:39;;;;;;;16.63;4.18;;;;;;;;;;5055258;28;20356;-57
2024/03/30 14:25:05;;;;;;;14.85;3.50;;;;;;;;;;5055911;28;20120;-57
2024/03/30 14:27:31;;;;;;;18.40;3.20;;;;;;;;;;5054062;28;20021;-57
2024/03/30 14:29:57;;;;;;;12.63;2.58;;;;;;;;;;5055636;28;20040;-57
2024/03/30 14:32:25;;;;;;;14.35;3.53;;;;;;;;;;5054542;28;20418;-57
2024/03/30 14:34:51;;;;;;;12.77;3.38;;;;;;;;;;5055200;28;20029;-58